Latest Weather Observations for Cocos Island

IDW60801

Issued at 12:05 pm WST Wednesday 16 April 2014 (issued every 30 minutes, with the page automatically refreshed every 10 minutes)

About weather observations | Map of weather stations | Latest weather observations for WA | Other Formats
Station Details ID: 200284 Name: COCOS ISLAND AIRPORT Lat: -12.19 Lon: 96.83 Height: 3.0 m
Data from the previous 72 hours. | See also: Recent months at Cocos Island
Date/Time
WST
Temp
°C
App
Temp
°C
Dew
Point
Rel
Hum
%
Delta-T
°C
Wind Press
QNH
hPa
Press
MSL
hPa
Rain
since 9 am
mm
Dir
 
Spd
km/h
Gust
km/h
Spd
kts
Gust
kts
16/12:00pm 28.2 29.3 24.9 82 2.3 SE 28 39 15 21 1009.2 - 0.0
16/11:32am 27.5 27.6 24.0 81 2.4 SE 30 41 16 22 1009.9 - 0.0
16/11:00am 26.0 26.3 24.3 90 1.2 SE 30 43 16 23 1010.3 1010.3 40.0
16/10:48am 25.6 25.6 24.7 95 0.6 SE 33 43 18 23 1010.6 - 40.0
16/10:30am 25.7 23.8 24.7 94 0.7 ESE 43 63 23 34 1010.3 - 29.6
16/10:27am 25.6 24.0 24.6 94 0.7 ESE 41 63 22 34 1010.2 - 26.6
16/10:23am 25.8 22.3 24.2 91 1.1 ESE 50 63 27 34 1010.4 - 26.4
16/10:21am 26.8 28.0 25.1 90 1.2 SSE 28 52 15 28 1010.4 - 26.4
16/10:00am 26.7 27.6 25.3 92 1.0 SSE 30 44 16 24 1010.1 - 26.2
16/09:57am 27.5 28.7 25.1 87 1.7 SSE 28 41 15 22 1010.0 - 25.2
16/09:52am 27.4 28.2 25.0 87 1.7 SSE 30 44 16 24 1010.0 - 25.2
16/09:30am 26.5 27.0 24.0 86 1.7 SSE 28 44 15 24 1010.0 - 25.0
16/09:22am 26.2 25.4 24.0 88 1.5 SSE 35 46 19 25 1010.1 - 25.0
16/09:08am 27.4 28.4 24.8 86 1.8 SSE 28 46 15 25 1009.9 - 24.8
16/09:00am 27.3 28.4 25.0 87 1.6 SSE 28 37 15 20 1009.9 - 24.8
16/08:56am 27.2 28.4 25.1 88 1.5 SSE 28 37 15 20 1009.8 - 24.8
16/08:32am 26.3 26.3 24.7 91 1.1 SE 33 56 18 30 1009.5 - 24.2
16/08:30am 26.7 27.3 24.8 89 1.3 SE 30 56 16 30 1009.5 - 24.2
16/08:28am 27.0 28.1 25.0 89 1.4 SE 28 48 15 26 1009.5 - 24.2
16/08:00am 27.6 30.0 25.2 87 1.7 SE 22 30 12 16 1009.4 1009.4 23.6
16/07:30am 27.3 29.3 25.2 88 1.5 SE 24 33 13 18 1009.1 - 23.0
16/07:00am 27.6 29.3 24.7 84 2.0 SE 24 32 13 17 1008.9 - 22.0
16/06:30am 27.0 30.7 25.1 89 1.3 ESE 15 19 8 10 1008.8 - 21.6
16/06:00am 26.4 28.9 24.5 89 1.3 ESE 19 26 10 14 1008.7 - 21.6
16/05:30am 26.8 27.5 23.0 79 2.6 SE 24 35 13 19 1008.8 - 21.2
16/05:00am 27.5 30.6 24.8 85 1.9 SE 17 22 9 12 1009.0 1009.0 21.2
16/04:30am 27.2 30.0 23.7 81 2.4 ESE 15 19 8 10 1009.3 - 21.2
16/04:00am 27.2 29.1 23.7 81 2.4 ESE 20 26 11 14 1009.4 - 21.2
16/03:30am 27.0 29.3 24.1 84 2.0 ESE 19 24 10 13 1009.7 - 21.2
16/03:00am 27.2 30.0 24.9 87 1.6 E 19 28 10 15 1010.2 - 21.2
16/02:30am 27.1 29.9 25.0 88 1.5 E 19 22 10 12 1010.3 - 21.2
16/02:00am 27.0 30.0 24.7 87 1.6 ENE 17 24 9 13 1010.9 1010.9 21.2
16/01:30am 27.2 30.2 24.6 86 1.8 ENE 17 22 9 12 1011.4 - 21.2
16/01:00am 27.6 30.2 24.6 84 2.1 E 19 22 10 12 1011.7 - 21.0
16/12:30am 27.3 27.7 24.4 84 2.0 E 30 33 16 18 1011.9 - 21.0
16/12:00am 28.1 30.1 24.5 81 2.5 E 22 28 12 15 1011.8 - 21.0
 
Date/Time
WST
Temp
°C
App
Temp
°C
Dew
Point
Rel
Hum
%
Delta-T
°C
Wind Press
QNH
hPa
Press
MSL
hPa
Rain
since 9 am
mm
Dir
 
Spd
km/h
Gust
km/h
Spd
kts
Gust
kts
15/11:30pm 28.2 30.2 24.5 80 2.6 E 22 30 12 16 1012.0 - 21.0
15/11:00pm 28.6 30.7 24.7 79 2.7 E 22 30 12 16 1012.1 1012.1 21.0
15/10:30pm 28.9 30.0 24.4 76 3.1 ENE 26 32 14 17 1011.7 - 21.0
15/10:00pm 27.9 28.2 24.9 84 2.1 ENE 32 37 17 20 1011.2 - 21.0
15/09:30pm 28.4 30.2 25.4 84 2.1 E 26 30 14 16 1011.0 - 21.0
15/09:00pm 28.5 29.2 23.7 75 3.3 ESE 26 41 14 22 1010.6 - 21.0
15/08:30pm 28.9 32.0 24.8 78 2.9 ESE 17 20 9 11 1010.2 - 20.8
15/08:00pm 28.5 32.8 25.5 84 2.1 ESE 13 19 7 10 1010.0 1010.0 20.8
15/07:30pm 28.3 32.2 24.9 82 2.4 ESE 13 17 7 9 1009.7 - 20.8
15/07:00pm 27.6 31.3 25.2 87 1.7 ENE 15 17 8 9 1009.7 - 20.8
15/06:30pm 27.2 30.2 25.2 89 1.4 ENE 19 32 10 17 1009.7 - 20.8
15/06:00pm 28.2 32.6 24.5 80 2.6 ENE 9 13 5 7 1009.5 - 20.8
15/05:30pm 27.1 29.4 24.5 86 1.8 ESE 20 28 11 15 1009.5 - 20.4
15/05:27pm 26.9 29.2 24.4 86 1.7 ESE 20 28 11 15 1009.6 - 20.4
15/05:09pm 26.5 28.3 24.9 91 1.1 ESE 24 35 13 19 1009.6 - 20.4
15/05:00pm 26.2 28.7 24.8 92 1.0 E 20 28 11 15 1009.5 1009.5 20.0
15/04:51pm 25.6 26.4 24.4 93 0.8 E 28 43 15 23 1009.7 - 17.4
15/04:39pm 27.1 26.8 25.5 91 1.1 E 37 50 20 27 1009.5 - 2.6
15/04:33pm 28.8 29.0 25.1 80 2.6 E 33 48 18 26 1009.4 - 2.4
15/04:30pm 29.5 31.9 24.2 73 3.7 SE 19 24 10 13 1009.4 - 2.4
15/04:00pm 28.6 30.2 22.9 71 3.9 SE 19 24 10 13 1009.4 - 2.4
15/03:30pm 28.4 28.8 25.0 82 2.4 SE 32 43 17 23 1009.8 - 2.4
15/03:27pm 27.9 29.0 24.9 84 2.1 SE 28 43 15 23 1009.9 - 2.4
15/03:00pm 30.2 33.6 25.2 74 3.5 ESE 17 24 9 13 1009.8 - 2.4
15/02:30pm 30.5 33.2 25.0 72 3.9 ESE 20 28 11 15 1010.1 - 2.4
15/02:00pm 30.5 33.8 25.7 75 3.4 SE 19 26 10 14 1010.5 1010.5 2.4
15/01:30pm 30.0 33.2 25.9 78 2.9 SE 20 28 11 15 1010.6 - 2.4
15/01:00pm 29.5 32.6 25.4 78 2.9 SE 19 26 10 14 1010.9 - 2.2
15/12:42pm 28.3 31.8 25.5 85 2.0 SSE 17 20 9 11 1011.2 - 2.2
15/12:30pm 27.2 31.4 24.8 87 1.7 SSE 11 13 6 7 1011.4 - 2.2
15/12:11pm 27.3 28.1 25.0 87 1.6 SE 30 37 16 20 1011.7 - 0.0
15/12:00pm 29.0 31.8 24.9 78 2.9 SE 19 33 10 18 1011.7 - 0.0
15/11:30am 29.9 32.9 24.6 73 3.7 ESE 17 22 9 12 1011.8 - 0.0
15/11:00am 29.6 33.9 25.5 78 2.9 SE 13 17 7 9 1011.9 1011.9 17.6
15/10:30am 28.2 32.2 25.1 83 2.2 S 13 20 7 11 1011.9 - 17.6
15/09:59am 27.3 32.0 25.6 90 1.2 S 11 19 6 10 1011.8 - 17.6
15/09:49am 26.6 29.4 24.9 90 1.2 ESE 19 28 10 15 1011.6 - 17.2
15/09:30am 26.4 29.3 24.4 89 1.4 ESE 17 20 9 11 1011.5 - 10.6
15/09:21am 26.5 27.6 23.7 84 1.9 SSE 24 32 13 17 1011.3 - 10.0
15/09:00am 28.3 30.7 24.6 80 2.6 SSE 20 26 11 14 1011.0 - 10.0
15/08:31am 26.4 30.8 24.5 89 1.3 SSE 9 17 5 9 1010.8 - 10.0
15/08:30am 26.3 30.8 24.6 90 1.2 SSE 9 13 5 7 1010.8 - 10.0
15/08:00am 25.9 27.7 24.3 91 1.1 SSE 22 32 12 17 1010.6 1010.6 8.8
15/07:44am 25.9 26.9 24.2 90 1.2 SE 26 39 14 21 1010.5 - 7.8
15/07:30am 26.9 29.1 24.3 86 1.8 SSE 20 28 11 15 1010.3 - 7.6
15/07:00am 27.2 29.7 24.5 85 1.9 SSE 19 24 10 13 1009.9 - 7.6
15/06:30am 26.6 28.8 24.0 86 1.8 SSE 19 26 10 14 1009.8 - 7.6
15/06:15am 26.5 27.2 23.7 84 1.9 SSE 26 33 14 18 1009.9 - 7.6
15/06:00am 26.2 28.9 24.2 89 1.4 SSE 17 20 9 11 1009.8 - 7.6
15/05:50am 26.8 29.2 24.6 88 1.5 SE 20 41 11 22 1009.9 - 4.2
15/05:30am 27.8 29.2 23.6 78 2.9 S 22 28 12 15 1010.0 - 3.8
15/05:00am 27.5 29.3 23.6 79 2.7 SSE 20 28 11 15 1010.2 1010.2 3.8
15/04:30am 27.7 29.3 23.3 77 3.0 S 20 28 11 15 1010.2 - 3.8
15/04:00am 27.6 29.2 23.2 77 3.0 SSE 20 28 11 15 1010.6 - 3.8
15/03:30am 27.7 29.7 23.0 75 3.2 SSE 17 22 9 12 1010.8 - 3.8
15/03:00am 28.0 29.8 22.5 72 3.7 SSE 17 26 9 14 1011.2 - 3.8
15/02:30am 27.7 29.3 22.8 74 3.3 SSE 19 24 10 13 1011.3 - 3.8
15/02:00am 27.7 29.0 22.7 74 3.4 SSE 20 24 11 13 1011.9 1011.9 3.8
15/01:30am 27.8 29.7 22.8 74 3.4 SSE 17 22 9 12 1012.1 - 3.8
15/01:00am 28.0 29.7 22.4 71 3.8 SSE 17 22 9 12 1012.3 - 3.8
15/12:30am 28.3 30.1 22.5 71 3.9 SSE 17 22 9 12 1012.4 - 3.8
15/12:00am 28.2 30.1 22.8 72 3.7 SSE 17 20 9 11 1012.6 - 3.8
 
Date/Time
WST
Temp
°C
App
Temp
°C
Dew
Point
Rel
Hum
%
Delta-T
°C
Wind Press
QNH
hPa
Press
MSL
hPa
Rain
since 9 am
mm
Dir
 
Spd
km/h
Gust
km/h
Spd
kts
Gust
kts
14/11:30pm 28.4 30.1 22.3 69 4.1 SSE 17 24 9 13 1012.8 - 3.8
14/11:00pm 28.5 29.8 22.4 69 4.1 SSE 19 22 10 12 1012.8 1012.8 3.8
14/10:30pm 28.4 30.3 22.7 71 3.9 SSE 17 24 9 13 1012.6 - 3.8
14/10:00pm 28.7 30.7 23.0 71 3.9 SSE 17 24 9 13 1012.4 - 3.8
14/09:30pm 28.8 30.2 22.5 68 4.3 SE 19 24 10 13 1012.2 - 3.8
14/09:00pm 28.7 30.6 22.7 70 4.1 SSE 17 24 9 13 1011.9 - 3.8
14/08:30pm 29.0 30.6 22.8 69 4.2 SE 19 26 10 14 1011.6 - 3.8
14/08:00pm 29.1 30.3 22.1 66 4.7 SE 19 24 10 13 1011.2 1011.2 3.8
14/07:30pm 29.1 31.5 23.6 72 3.8 SE 17 24 9 13 1011.0 - 3.8
14/07:00pm 28.9 30.9 22.9 70 4.1 SSE 17 24 9 13 1010.8 - 3.8
14/06:30pm 29.5 32.1 23.9 72 3.9 SE 17 22 9 12 1010.7 - 3.8
14/06:00pm 30.1 32.3 23.3 67 4.7 SE 17 22 9 12 1010.4 - 3.8
14/05:30pm 29.9 31.8 23.5 68 4.4 ESE 19 26 10 14 1010.2 - 3.8
14/05:00pm 29.7 34.1 24.4 73 3.7 ENE 9 17 5 9 1010.2 1010.2 3.8
14/04:30pm 30.2 32.7 24.5 71 4.0 SE 19 24 10 13 1010.1 - 3.8
14/04:00pm 29.9 33.2 24.5 73 3.8 SE 15 20 8 11 1010.2 - 3.8
14/03:30pm 29.2 32.5 23.8 72 3.7 SSE 13 15 7 8 1010.4 - 3.8
14/03:00pm 29.6 30.4 24.4 73 3.6 SSE 28 37 15 20 1010.8 - 3.8
14/02:50pm 29.3 30.0 24.3 74 3.5 SSE 28 37 15 20 1011.0 - 3.8
14/02:30pm 30.1 33.6 24.2 70 4.1 ESE 13 17 7 9 1011.2 - 3.8
14/02:00pm 29.2 32.0 24.9 77 3.0 ENE 19 22 10 12 1011.6 1011.6 3.8
14/01:30pm 30.5 33.0 24.8 71 4.0 SSE 20 28 11 15 1011.8 - 3.8
14/01:00pm 30.2 33.2 24.6 72 3.9 SE 17 24 9 13 1012.1 - 3.8
14/12:30pm 30.0 32.4 24.3 71 4.0 SE 19 22 10 12 1012.5 - 3.8
14/12:00pm 28.8 33.3 24.0 75 3.3 ENE 7 11 4 6 1012.8 - 3.8
14/11:36am 26.0 30.0 23.8 88 1.5 ENE 9 13 5 7 1013.0 - 3.8
14/11:30am 25.8 30.4 24.1 90 1.2 ENE 7 11 4 6 1013.0 - 3.8
14/11:20am 24.7 28.0 23.2 91 1.0 E 11 20 6 11 1013.1 - 3.6
14/11:12am 25.4 27.4 23.9 91 1.0 E 20 28 11 15 1013.3 - 1.6
14/11:00am 25.0 24.4 23.4 91 1.1 E 32 43 17 23 1013.4 1013.4 8.4
14/10:55am 25.8 25.9 23.9 89 1.3 E 30 43 16 23 1013.1 - 3.0
14/10:49am 26.3 27.2 24.0 87 1.6 E 26 33 14 18 1012.8 - 2.8
14/10:30am 28.1 31.7 24.4 80 2.6 ESE 13 20 7 11 1012.8 - 2.4
14/10:00am 27.9 30.9 23.4 76 3.1 ESE 13 19 7 10 1012.5 - 2.4
14/09:30am 27.4 29.6 23.9 81 2.4 SE 19 26 10 14 1012.3 - 2.4
14/09:13am 27.8 29.3 23.0 75 3.3 SE 20 26 11 14 1011.9 - 2.4
14/09:00am 26.9 29.4 23.2 80 2.5 E 15 20 8 11 1011.8 - 2.4
14/08:40am 27.9 30.5 24.0 79 2.7 SSE 17 28 9 15 1011.4 - 2.4
14/08:30am 27.9 31.3 24.0 79 2.7 SSE 13 17 7 9 1011.2 - 2.4
14/08:00am 28.1 31.6 24.2 79 2.7 SE 13 20 7 11 1010.9 1010.9 2.4
14/07:30am 28.1 31.8 23.9 78 2.9 ESE 11 15 6 8 1010.6 - 2.4
14/07:00am 28.0 31.8 24.7 82 2.3 E 13 15 7 8 1010.3 - 2.4
14/06:30am 27.8 31.7 24.3 81 2.4 E 11 13 6 7 1010.0 - 2.4
14/06:00am 27.4 31.3 23.6 80 2.6 ESE 9 13 5 7 1010.0 - 2.4
14/05:30am 27.4 30.5 24.1 82 2.3 E 15 20 8 11 1010.1 - 2.4
14/05:00am 28.0 31.5 24.2 80 2.6 E 13 17 7 9 1010.3 1010.3 2.4
14/04:30am 28.1 31.5 24.1 79 2.8 E 13 17 7 9 1010.4 - 2.4
14/04:00am 27.9 31.1 23.7 78 2.9 E 13 15 7 8 1010.5 - 2.4
14/03:30am 27.8 31.2 23.4 77 3.0 E 11 13 6 7 1010.7 - 2.4
14/03:00am 27.9 31.4 23.5 77 3.0 E 11 15 6 8 1011.0 - 2.4
14/02:30am 27.8 31.7 24.2 81 2.5 E 11 13 6 7 1011.5 - 2.4
14/02:00am 27.6 31.2 24.4 83 2.2 E 13 17 7 9 1012.0 1012.0 2.4
14/01:46am 27.3 30.6 23.8 81 2.4 E 13 17 7 9 1012.1 - 2.4
14/01:30am 26.9 30.7 24.1 85 1.9 NNE 11 13 6 7 1012.3 - 2.4
14/01:25am 27.1 28.8 24.1 84 2.1 E 22 28 12 15 1012.3 - 1.4
14/01:00am 27.8 32.5 24.9 84 2.0 ESE 9 13 5 7 1012.5 - 0.0
14/12:30am 28.1 32.3 24.7 82 2.4 ENE 11 15 6 8 1012.7 - 0.0
14/12:00am 27.9 32.0 24.6 82 2.3 ESE 11 13 6 7 1012.8 - 0.0
 
Date/Time
WST
Temp
°C
App
Temp
°C
Dew
Point
Rel
Hum
%
Delta-T
°C
Wind Press
QNH
hPa
Press
MSL
hPa
Rain
since 9 am
mm
Dir
 
Spd
km/h
Gust
km/h
Spd
kts
Gust
kts
13/11:30pm 27.8 31.9 24.5 82 2.3 E 11 15 6 8 1012.9 - 0.0
13/11:00pm 27.6 32.1 24.6 84 2.1 ESE 9 13 5 7 1012.8 1012.8 0.0
13/10:30pm 27.6 31.2 23.7 79 2.7 E 11 15 6 8 1012.8 - 0.0
13/10:00pm 27.3 30.5 22.4 74 3.3 ESE 9 13 5 7 1012.7 - 0.0
13/09:30pm 26.7 27.8 23.0 80 2.5 ENE 22 28 12 15 1012.4 - 0.0
13/09:16pm 27.4 27.5 23.3 78 2.8 E 28 37 15 20 1012.4 - 0.0
13/09:00pm 26.3 28.7 22.9 81 2.3 SSE 15 19 8 10 1012.1 - 0.0
13/08:30pm 27.7 28.9 23.8 79 2.7 SE 24 35 13 19 1011.9 - 0.0
13/08:00pm 29.0 32.4 24.1 75 3.4 ESE 13 17 7 9 1011.1 1011.1 0.0
13/07:30pm 29.2 32.0 23.7 72 3.8 ESE 15 20 8 11 1010.8 - 0.0
13/07:00pm 29.6 32.7 23.5 69 4.2 ESE 13 19 7 10 1010.6 - 0.0
13/06:30pm 29.5 32.4 23.2 69 4.3 ESE 13 17 7 9 1010.3 - 0.0
13/06:00pm 29.6 32.6 23.3 69 4.3 ESE 13 17 7 9 1010.0 - 0.0
13/05:30pm 30.1 33.2 23.6 68 4.5 ESE 13 17 7 9 1009.7 - 0.0
13/05:00pm 30.3 32.7 23.0 65 5.0 ESE 15 20 8 11 1009.6 1009.6 0.0
13/04:30pm 30.9 34.4 24.2 67 4.7 ESE 13 17 7 9 1009.7 - 0.0
13/04:00pm 30.6 33.2 23.3 65 5.0 ESE 15 19 8 10 1009.9 - 0.0
13/03:30pm 29.6 32.0 23.7 70 4.1 SE 17 20 9 11 1010.2 - 0.0
13/03:00pm 29.9 33.2 24.5 73 3.8 ESE 15 19 8 10 1010.5 - 0.0
13/02:30pm 30.9 34.8 24.8 70 4.3 E 13 17 7 9 1010.8 - 0.0
13/02:00pm 31.4 35.4 24.4 66 4.9 ENE 11 17 6 9 1011.1 1011.1 0.0

Other Formats:

Comma delimited format used in spreadsheet applications
http://www.bom.gov.au/fwo/IDW60801/IDW60801.96996.axf

JavaScript Object Notation format (JSON) in row-major order
http://www.bom.gov.au/fwo/IDW60801/IDW60801.96996.json